McLean, Nebraska
Current Conditions -  °F | °C
As of 5:15 PM on Wednesday 26 Nov 2014 (Local Time) from KLCG Reporting Station
Overcast Overcast  
Wind Chill:   Ceiling: 1200
Heat Index: 20°   Visibility: 10mi
Dew Point: 16°   Wind: 12mph
Humidity: 83%   Direction: 340°NNW
Pressure: 30.36"   Gusts: NA
Location:  42.39°N, 97.47°W
Report Text: KLCG 262315Z AUTO 34010KT 10SM OVC012 M06/M09 A3036 RMK AO2 T10651090
Loading
Personal Weather Stations






























Interactive Weather Map New forecast layout! Learn more

10-Day Weather Forecast

Advertisements
Track Severe Weather on mobile